createdAt,value
2023-03-06T00:01:32.596Z,7.28
2023-03-06T00:03:59.277Z,8.40
2023-03-06T00:06:25.794Z,8.35
2023-03-06T00:08:52.524Z,7.75
2023-03-06T00:11:18.993Z,9.13
2023-03-06T00:13:45.568Z,8.10
2023-03-06T00:16:12.195Z,8.85
2023-03-06T00:18:38.670Z,9.45
2023-03-06T00:21:08.785Z,9.63
2023-03-06T00:23:36.196Z,9.07
2023-03-06T00:26:02.732Z,9.10
2023-03-06T00:28:31.442Z,9.35
2023-03-06T00:30:57.997Z,9.27
2023-03-06T00:33:24.658Z,9.05
2023-03-06T00:35:53.129Z,8.82
2023-03-06T00:38:19.745Z,8.88
2023-03-06T00:40:46.196Z,9.73
2023-03-06T00:43:13.185Z,10.13
2023-03-06T00:45:41.638Z,10.05
2023-03-06T00:48:08.491Z,10.38
2023-03-06T00:50:35.345Z,10.10
2023-03-06T00:53:01.811Z,10.18
2023-03-06T00:55:29.563Z,9.88
2023-03-06T00:57:56.032Z,10.40
2023-03-06T01:00:22.780Z,10.77
2023-03-06T01:02:49.539Z,10.20
2023-03-06T01:05:16.173Z,10.90
2023-03-06T01:07:42.562Z,11.05
2023-03-06T01:10:09.895Z,11.32
2023-03-06T01:12:36.519Z,11.10
2023-03-06T01:15:04.961Z,10.75
2023-03-06T01:17:31.424Z,11.43
2023-03-06T01:19:58.150Z,11.23
2023-03-06T01:22:24.803Z,12.02
2023-03-06T01:24:52.639Z,12.18
2023-03-06T01:27:21.314Z,10.48
2023-03-06T01:29:47.790Z,10.77
2023-03-06T01:32:14.321Z,11.23
2023-03-06T01:34:41.354Z,10.82
2023-03-06T01:37:07.812Z,10.77
2023-03-06T01:39:34.566Z,10.52
2023-03-06T01:42:01.089Z,11.52
2023-03-06T01:44:27.616Z,11.20
2023-03-06T01:46:54.149Z,10.68
2023-03-06T01:49:40.028Z,10.43
2023-03-06T01:52:14.582Z,10.98
2023-03-06T01:54:50.060Z,10.30
2023-03-06T01:57:26.662Z,10.10
2023-03-06T01:59:59.669Z,9.88
2023-03-06T02:02:26.520Z,10.63
2023-03-06T02:04:53.183Z,10.88
2023-03-06T02:07:21.065Z,11.40
2023-03-06T02:09:47.698Z,11.80
2023-03-06T02:12:19.180Z,11.13
2023-03-06T02:14:46.310Z,10.35
2023-03-06T02:17:15.136Z,10.88
2023-03-06T02:20:10.178Z,10.75
2023-03-06T02:22:46.578Z,10.10
2023-03-06T02:25:33.779Z,11.73
2023-03-06T02:28:01.268Z,11.13
2023-03-06T02:30:50.063Z,11.07
2023-03-06T02:33:36.593Z,10.90
2023-03-06T02:36:23.465Z,12.07
2023-03-06T02:39:10.521Z,10.63
2023-03-06T02:41:57.703Z,9.93
2023-03-06T02:44:45.383Z,9.98
2023-03-06T02:47:11.835Z,11.15
2023-03-06T02:49:38.403Z,9.93
2023-03-06T02:52:06.825Z,10.40
2023-03-06T02:54:33.415Z,10.02
2023-03-06T02:57:00.024Z,11.32
2023-03-06T02:59:26.610Z,11.50
2023-03-06T03:01:53.506Z,9.77
2023-03-06T03:04:20.215Z,10.57
2023-03-06T03:06:47.018Z,10.32
2023-03-06T03:09:14.073Z,10.55
2023-03-06T03:11:40.648Z,10.65
2023-03-06T03:14:07.138Z,11.38
2023-03-06T03:16:33.700Z,10.63
2023-03-06T03:19:00.158Z,11.00
2023-03-06T03:21:27.652Z,9.85
2023-03-06T03:23:55.110Z,10.40
2023-03-06T03:26:22.204Z,9.55
2023-03-06T03:29:11.330Z,10.55
2023-03-06T03:31:37.790Z,10.52
2023-03-06T03:34:04.661Z,10.27
2023-03-06T03:36:34.510Z,10.50
2023-03-06T03:39:01.889Z,10.88
2023-03-06T03:41:28.483Z,11.00
2023-03-06T03:43:54.929Z,9.68
2023-03-06T03:46:22.645Z,9.57
2023-03-06T03:48:50.790Z,9.95
2023-03-06T03:51:17.782Z,10.45
2023-03-06T03:53:49.264Z,11.27
2023-03-06T03:56:19.027Z,10.30
2023-03-06T03:58:54.247Z,11.05
2023-03-06T04:01:21.908Z,10.57
2023-03-06T04:03:48.437Z,9.73
2023-03-06T04:06:16.648Z,10.15
2023-03-06T04:08:43.429Z,10.63
2023-03-06T04:11:10.326Z,10.25
2023-03-06T04:13:37.128Z,10.07
2023-03-06T04:16:05.727Z,9.73
2023-03-06T04:18:33.496Z,10.77
2023-03-06T04:21:03.825Z,9.57
2023-03-06T04:23:31.050Z,10.95
2023-03-06T04:25:57.630Z,10.07
2023-03-06T04:28:24.316Z,9.60
2023-03-06T04:30:51.443Z,10.90
2023-03-06T04:33:19.521Z,10.15
2023-03-06T04:35:46.072Z,10.93
2023-03-06T04:38:18.480Z,9.48
2023-03-06T04:40:45.774Z,10.57
2023-03-06T04:43:12.217Z,9.93
2023-03-06T04:45:38.855Z,11.23
2023-03-06T04:48:06.029Z,11.50
2023-03-06T04:50:33.050Z,10.55
2023-03-06T04:53:01.788Z,9.98
2023-03-06T04:55:28.626Z,10.85
2023-03-06T04:57:55.619Z,10.13
2023-03-06T05:00:29.321Z,10.55
2023-03-06T05:02:57.124Z,10.07
2023-03-06T05:05:23.952Z,10.77
2023-03-06T05:07:50.710Z,11.02
2023-03-06T05:10:18.573Z,10.27
2023-03-06T05:12:45.012Z,11.00
2023-03-06T05:15:13.475Z,12.00
2023-03-06T05:17:40.090Z,11.30
2023-03-06T05:20:09.540Z,10.65
2023-03-06T05:22:36.102Z,10.52
2023-03-06T05:25:03.101Z,10.93
2023-03-06T05:27:29.646Z,11.48
2023-03-06T05:29:56.204Z,11.57
2023-03-06T05:32:23.115Z,12.30
2023-03-06T05:34:49.750Z,12.75
2023-03-06T05:37:16.245Z,10.98
2023-03-06T05:39:42.896Z,12.27
2023-03-06T05:42:09.334Z,11.73
2023-03-06T05:44:36.221Z,12.25
2023-03-06T05:47:03.143Z,12.07
2023-03-06T05:49:35.607Z,11.77
2023-03-06T05:52:06.724Z,13.10
2023-03-06T05:54:34.961Z,11.10
2023-03-06T05:57:02.917Z,11.35
2023-03-06T05:59:29.638Z,12.13
2023-03-06T06:01:56.293Z,11.82
2023-03-06T06:04:24.622Z,12.25
2023-03-06T06:06:53.509Z,13.25
2023-03-06T06:09:20.630Z,11.98
2023-03-06T06:11:47.084Z,13.13
2023-03-06T06:14:14.833Z,12.63
2023-03-06T06:16:41.814Z,12.55
2023-03-06T06:19:08.379Z,13.13
2023-03-06T06:21:34.896Z,12.07
2023-03-06T06:24:01.264Z,11.70
2023-03-06T06:26:27.687Z,12.18
2023-03-06T06:28:54.241Z,12.15
2023-03-06T06:31:20.789Z,14.32
2023-03-06T06:33:47.295Z,12.38
2023-03-06T06:36:19.426Z,11.25
2023-03-06T06:38:46.018Z,12.63
2023-03-06T06:41:36.113Z,12.93
2023-03-06T06:43:59.531Z,12.55
2023-03-06T06:47:14.364Z,12.07
2023-03-06T06:49:14.715Z,12.80
2023-03-06T06:51:41.692Z,12.98
2023-03-06T06:54:08.696Z,13.82
2023-03-06T06:56:35.329Z,12.40
2023-03-06T06:59:15.640Z,12.77
2023-03-06T07:01:42.984Z,12.73
2023-03-06T07:04:12.618Z,12.82
2023-03-06T07:06:39.155Z,13.97
2023-03-06T07:09:05.934Z,13.85
2023-03-06T07:11:32.425Z,15.02
2023-03-06T07:13:59.246Z,16.48
2023-03-06T07:16:25.702Z,14.40
2023-03-06T07:18:52.253Z,15.77
2023-03-06T07:21:18.812Z,14.23
2023-03-06T07:23:45.563Z,13.35
2023-03-06T07:26:12.031Z,13.65
2023-03-06T07:28:51.585Z,13.82
2023-03-06T07:31:23.740Z,12.65
2023-03-06T07:33:50.998Z,13.65
2023-03-06T07:36:18.076Z,13.10
2023-03-06T07:38:44.782Z,13.50
2023-03-06T07:41:13.513Z,13.07
2023-03-06T07:43:41.067Z,14.82
2023-03-06T07:46:08.103Z,12.77
2023-03-06T07:48:35.597Z,13.60
2023-03-06T07:51:05.779Z,13.48
2023-03-06T07:53:33.238Z,13.82
2023-03-06T07:56:00.060Z,12.60
2023-03-06T07:58:26.652Z,12.73
2023-03-06T08:00:53.287Z,12.63
2023-03-06T08:03:19.799Z,13.68
2023-03-06T08:05:46.475Z,13.05
2023-03-06T08:08:13.237Z,12.18
2023-03-06T08:10:39.854Z,13.00
2023-03-06T08:13:06.533Z,13.77
2023-03-06T08:15:33.159Z,13.38
2023-03-06T08:17:59.824Z,12.52
2023-03-06T08:20:26.375Z,11.82
2023-03-06T08:22:52.981Z,11.65
2023-03-06T08:25:19.592Z,11.65
2023-03-06T08:27:47.316Z,12.32
2023-03-06T08:30:14.160Z,12.02
2023-03-06T08:32:40.920Z,11.70
2023-03-06T08:35:07.847Z,12.70
2023-03-06T08:37:34.445Z,12.52
2023-03-06T08:40:03.520Z,12.48
2023-03-06T08:42:30.764Z,12.57
2023-03-06T08:44:57.268Z,12.25
2023-03-06T08:47:23.814Z,12.52
2023-03-06T08:49:50.574Z,12.57
2023-03-06T08:52:16.979Z,12.95
2023-03-06T08:54:43.424Z,13.25
2023-03-06T08:57:09.806Z,13.93
2023-03-06T08:59:36.983Z,12.75
2023-03-06T09:02:05.371Z,13.40
2023-03-06T09:04:31.960Z,13.60
2023-03-06T09:07:00.549Z,13.00
2023-03-06T09:09:26.937Z,13.60
2023-03-06T09:11:53.606Z,12.57
2023-03-06T09:14:20.128Z,13.63
2023-03-06T09:16:46.827Z,13.15
2023-03-06T09:19:13.294Z,15.20
2023-03-06T09:21:39.833Z,13.13
2023-03-06T09:24:06.611Z,13.55
2023-03-06T09:26:44.956Z,13.20
2023-03-06T09:29:12.699Z,15.70
2023-03-06T09:31:39.225Z,14.32
2023-03-06T09:34:05.764Z,13.63
2023-03-06T09:36:37.915Z,13.80
2023-03-06T09:39:12.460Z,13.98
2023-03-06T09:41:42.239Z,13.65
2023-03-06T09:44:14.894Z,13.45
2023-03-06T09:47:07.982Z,13.13
2023-03-06T09:49:44.704Z,15.23
2023-03-06T09:52:31.388Z,14.27
2023-03-06T09:55:10.364Z,14.02
2023-03-06T09:57:41.264Z,13.18
2023-03-06T10:00:16.545Z,12.63
2023-03-06T10:02:50.949Z,12.00
2023-03-06T10:05:26.976Z,14.63
2023-03-06T10:08:03.271Z,14.18
2023-03-06T10:10:44.583Z,12.88
2023-03-06T10:13:29.001Z,13.55
2023-03-06T10:16:06.499Z,13.43
2023-03-06T10:18:33.438Z,13.75
2023-03-06T10:21:18.426Z,12.70
2023-03-06T10:23:54.736Z,14.52
2023-03-06T10:26:30.250Z,13.75
2023-03-06T10:29:27.408Z,13.20
2023-03-06T10:32:04.243Z,14.52
2023-03-06T10:34:37.356Z,13.02
2023-03-06T10:37:16.508Z,13.27
2023-03-06T10:39:42.910Z,11.20
2023-03-06T10:42:10.175Z,12.65
2023-03-06T10:44:37.603Z,11.93
2023-03-06T10:47:31.207Z,12.25
2023-03-06T10:50:00.470Z,12.70
2023-03-06T10:52:33.361Z,14.00
2023-03-06T10:55:24.676Z,15.00
2023-03-06T10:57:51.364Z,13.52
2023-03-06T11:00:31.839Z,13.00
2023-03-06T11:03:15.570Z,13.75
2023-03-06T11:06:04.832Z,12.27
2023-03-06T11:08:31.743Z,13.02
2023-03-06T11:11:15.896Z,13.20
2023-03-06T11:13:56.746Z,13.63
2023-03-06T11:16:27.775Z,14.45
2023-03-06T11:19:01.166Z,13.10
2023-03-06T11:21:35.868Z,13.18
2023-03-06T11:24:07.627Z,13.48
2023-03-06T11:26:44.771Z,14.20
2023-03-06T11:29:17.261Z,15.25
2023-03-06T11:32:10.225Z,12.82
2023-03-06T11:34:57.781Z,14.23
2023-03-06T11:37:46.037Z,14.30
2023-03-06T11:40:37.354Z,13.73
2023-03-06T11:43:23.303Z,14.35
2023-03-06T11:46:15.280Z,13.95
2023-03-06T11:48:48.303Z,13.90
2023-03-06T11:51:21.204Z,15.65
2023-03-06T11:53:50.587Z,14.02
2023-03-06T11:56:20.055Z,15.57
2023-03-06T11:59:20.458Z,16.45
2023-03-06T12:01:50.022Z,13.63
2023-03-06T12:04:32.073Z,14.85
2023-03-06T12:07:10.713Z,15.15
2023-03-06T12:10:14.204Z,15.50
2023-03-06T12:13:02.421Z,15.13
2023-03-06T12:15:44.075Z,14.80
2023-03-06T12:18:32.031Z,12.80
2023-03-06T12:21:07.509Z,14.85
2023-03-06T12:23:50.047Z,14.45
2023-03-06T12:26:32.115Z,15.80
2023-03-06T12:29:10.669Z,14.70
2023-03-06T12:31:52.994Z,14.82
2023-03-06T12:34:47.262Z,18.00
2023-03-06T12:37:54.545Z,16.02
2023-03-06T12:41:15.582Z,13.52
2023-03-06T12:44:06.803Z,12.60
2023-03-06T12:46:39.548Z,10.43
2023-03-06T12:49:12.286Z,10.82
2023-03-06T12:51:39.878Z,11.15
2023-03-06T12:54:07.343Z,11.15
2023-03-06T12:56:35.411Z,10.88
2023-03-06T12:59:02.668Z,11.35
2023-03-06T13:01:48.351Z,11.18
2023-03-06T13:04:35.244Z,12.07
2023-03-06T13:07:53.936Z,11.13
2023-03-06T13:10:26.685Z,11.85
2023-03-06T13:13:00.956Z,11.63
2023-03-06T13:15:56.595Z,11.50
2023-03-06T13:18:23.018Z,11.27
2023-03-06T13:20:56.388Z,10.43
2023-03-06T13:23:29.133Z,11.00
2023-03-06T13:26:09.679Z,9.98
2023-03-06T13:31:26.499Z,9.60
2023-03-06T13:34:04.233Z,8.52
2023-03-06T13:36:32.966Z,8.98
2023-03-06T13:39:12.502Z,9.85
2023-03-06T13:41:58.961Z,9.88
2023-03-06T13:44:25.446Z,10.77
2023-03-06T13:47:01.766Z,10.68
2023-03-06T13:49:29.322Z,10.10
2023-03-06T13:52:05.471Z,8.55
2023-03-06T13:54:56.402Z,8.02
2023-03-06T13:58:01.676Z,7.28
2023-03-06T14:00:47.460Z,7.40
2023-03-06T14:03:32.878Z,6.45
2023-03-06T14:05:59.535Z,6.65
2023-03-06T14:08:32.837Z,6.47
2023-03-06T14:11:06.603Z,6.03
2023-03-06T14:13:46.608Z,5.28
2023-03-06T14:16:20.802Z,4.63
2023-03-06T14:18:50.440Z,4.95
2023-03-06T14:21:30.866Z,4.45
2023-03-06T14:24:02.780Z,4.40
2023-03-06T14:26:34.139Z,4.90
2023-03-06T14:29:02.639Z,4.82
2023-03-06T14:31:32.988Z,5.05
2023-03-06T14:34:05.645Z,5.78
2023-03-06T14:36:36.632Z,6.55
2023-03-06T14:39:10.858Z,5.97
2023-03-06T14:41:38.158Z,7.75
2023-03-06T14:44:26.317Z,7.85
2023-03-06T14:46:57.971Z,8.75
2023-03-06T14:49:26.144Z,8.73
2023-03-06T14:51:55.343Z,9.57
2023-03-06T14:54:27.710Z,9.10
2023-03-06T14:57:00.658Z,9.27
2023-03-06T14:59:30.041Z,8.65
2023-03-06T15:02:00.963Z,8.82
2023-03-06T15:04:35.030Z,9.85
2023-03-06T15:07:05.083Z,9.07
2023-03-06T15:09:33.899Z,9.20
2023-03-06T15:12:03.506Z,8.63
2023-03-06T15:14:41.774Z,8.73
2023-03-06T15:17:20.470Z,8.45
2023-03-06T15:19:49.128Z,9.10
2023-03-06T15:22:27.906Z,9.00
2023-03-06T15:25:08.891Z,8.77
2023-03-06T15:27:35.475Z,8.77
2023-03-06T15:30:25.027Z,8.65
2023-03-06T15:32:52.779Z,9.03
2023-03-06T15:35:33.313Z,9.43
2023-03-06T15:38:01.059Z,9.30
2023-03-06T15:40:30.862Z,9.32
2023-03-06T15:42:58.890Z,9.25
2023-03-06T15:45:27.704Z,9.50
2023-03-06T15:47:55.576Z,8.90
2023-03-06T15:50:28.872Z,9.95
2023-03-06T15:52:55.510Z,10.18
2023-03-06T15:55:25.788Z,11.48
2023-03-06T15:57:59.632Z,10.07
2023-03-06T16:00:29.650Z,11.13
2023-03-06T16:02:57.560Z,10.05
2023-03-06T16:05:25.768Z,10.55
2023-03-06T16:07:52.581Z,11.52
2023-03-06T16:10:25.596Z,11.02
2023-03-06T16:13:04.496Z,11.60
2023-03-06T16:15:33.637Z,10.77
2023-03-06T16:18:00.511Z,9.85
2023-03-06T16:20:28.648Z,10.40
2023-03-06T16:22:55.748Z,10.55
2023-03-06T16:25:24.588Z,9.60
2023-03-06T16:27:55.594Z,11.80
2023-03-06T16:30:23.308Z,10.38
2023-03-06T16:32:50.038Z,11.70
2023-03-06T16:35:16.986Z,11.20
2023-03-06T16:37:43.872Z,11.05
2023-03-06T16:40:29.540Z,12.55
2023-03-06T16:42:56.714Z,11.02
2023-03-06T16:45:24.478Z,10.65
2023-03-06T16:47:51.413Z,11.70
2023-03-06T16:50:33.661Z,10.90
2023-03-06T16:53:00.267Z,12.68
2023-03-06T16:55:27.495Z,12.10
2023-03-06T16:57:54.552Z,12.88
2023-03-06T17:00:22.273Z,13.05
2023-03-06T17:02:49.372Z,12.57
2023-03-06T17:05:16.226Z,13.15
2023-03-06T17:07:42.725Z,12.82
2023-03-06T17:10:12.453Z,14.73
2023-03-06T17:12:39.242Z,14.07
2023-03-06T17:15:07.120Z,13.43
2023-03-06T17:17:34.062Z,14.05
2023-03-06T17:20:00.780Z,13.80
2023-03-06T17:22:27.355Z,14.10
2023-03-06T17:24:54.925Z,13.13
2023-03-06T17:27:22.512Z,13.98
2023-03-06T17:29:49.165Z,14.40
2023-03-06T17:32:15.617Z,13.52
2023-03-06T17:34:42.629Z,13.13
2023-03-06T17:37:09.308Z,13.07
2023-03-06T17:39:38.610Z,12.70
2023-03-06T17:42:06.658Z,12.90
2023-03-06T17:44:34.442Z,13.45
2023-03-06T17:47:01.514Z,12.65
2023-03-06T17:49:28.276Z,12.88
2023-03-06T17:52:03.509Z,11.90
2023-03-06T17:54:30.324Z,12.52
2023-03-06T17:57:00.921Z,11.77
2023-03-06T17:59:28.661Z,12.50
2023-03-06T18:02:01.897Z,11.93
2023-03-06T18:04:29.043Z,12.98
2023-03-06T18:06:56.896Z,12.35
2023-03-06T18:09:24.057Z,12.77
2023-03-06T18:11:50.560Z,12.90
2023-03-06T18:14:17.274Z,11.73
2023-03-06T18:16:43.911Z,13.73
2023-03-06T18:19:11.408Z,13.40
2023-03-06T18:21:39.491Z,13.77
2023-03-06T18:24:06.431Z,13.07
2023-03-06T18:26:33.139Z,13.05
2023-03-06T18:29:03.585Z,13.68
2023-03-06T18:31:34.690Z,15.68
2023-03-06T18:34:13.289Z,14.95
2023-03-06T18:36:42.245Z,15.70
2023-03-06T18:39:11.775Z,16.27
2023-03-06T18:41:38.705Z,15.03
2023-03-06T18:44:06.165Z,13.65
2023-03-06T18:46:35.177Z,14.10
2023-03-06T18:49:02.227Z,14.25
2023-03-06T18:51:29.133Z,14.10
2023-03-06T18:54:00.323Z,14.45
2023-03-06T18:56:27.392Z,14.57
2023-03-06T18:58:54.461Z,13.77
2023-03-06T19:01:22.604Z,15.60
2023-03-06T19:03:49.443Z,15.50
2023-03-06T19:06:17.030Z,13.35
2023-03-06T19:08:44.227Z,14.27
2023-03-06T19:11:14.203Z,15.25
2023-03-06T19:13:41.193Z,14.55
2023-03-06T19:16:08.530Z,15.05
2023-03-06T19:18:35.676Z,15.10
2023-03-06T19:21:14.380Z,13.77
2023-03-06T19:23:41.756Z,14.30
2023-03-06T19:26:08.685Z,14.02
2023-03-06T19:28:38.341Z,13.73
2023-03-06T19:31:14.612Z,14.35
2023-03-06T19:33:42.304Z,12.98
2023-03-06T19:36:12.142Z,13.88
2023-03-06T19:38:38.925Z,15.10
2023-03-06T19:41:06.188Z,15.77
2023-03-06T19:43:32.971Z,15.75
2023-03-06T19:46:00.584Z,15.73
2023-03-06T19:48:27.165Z,15.32
2023-03-06T19:50:53.657Z,15.38
2023-03-06T19:53:21.596Z,14.20
2023-03-06T19:55:48.078Z,14.82
2023-03-06T19:58:14.724Z,14.38
2023-03-06T20:00:41.875Z,14.90
2023-03-06T20:03:08.431Z,13.90
2023-03-06T20:05:34.956Z,13.63
2023-03-06T20:08:01.517Z,15.10
2023-03-06T20:10:28.080Z,14.15
2023-03-06T20:12:54.691Z,14.15
2023-03-06T20:15:22.220Z,16.08
2023-03-06T20:17:48.846Z,15.02
2023-03-06T20:20:15.426Z,14.05
2023-03-06T20:22:41.908Z,15.25
2023-03-06T20:25:28.714Z,14.55
2023-03-06T20:27:55.206Z,15.50
2023-03-06T20:30:21.617Z,14.98
2023-03-06T20:32:48.126Z,14.38
2023-03-06T20:35:14.689Z,14.18
2023-03-06T20:37:41.361Z,13.82
2023-03-06T20:40:08.580Z,14.48
2023-03-06T20:42:35.014Z,14.40
2023-03-06T20:45:01.530Z,15.00
2023-03-06T20:47:27.974Z,12.95
2023-03-06T20:49:54.998Z,14.90
2023-03-06T20:52:21.393Z,13.63
2023-03-06T20:54:47.892Z,14.75
2023-03-06T20:57:14.476Z,13.98
2023-03-06T20:59:40.961Z,13.93
2023-03-06T21:02:10.083Z,13.30
2023-03-06T21:04:40.789Z,12.90
2023-03-06T21:07:07.439Z,13.65
2023-03-06T21:09:34.503Z,13.40
2023-03-06T21:12:01.000Z,13.13
2023-03-06T21:14:27.440Z,14.15
2023-03-06T21:16:53.914Z,14.80
2023-03-06T21:19:20.658Z,14.07
2023-03-06T21:21:47.319Z,14.68
2023-03-06T21:24:14.808Z,13.50
2023-03-06T21:26:41.309Z,13.10
2023-03-06T21:29:08.124Z,13.45
2023-03-06T21:31:34.770Z,13.32
2023-03-06T21:34:04.509Z,13.25
2023-03-06T21:36:31.396Z,14.20
2023-03-06T21:38:57.842Z,12.45
2023-03-06T21:41:27.464Z,13.07
2023-03-06T21:43:55.565Z,14.55
2023-03-06T21:46:22.551Z,15.15
2023-03-06T21:48:49.167Z,13.70
2023-03-06T21:51:19.089Z,13.90
2023-03-06T21:53:47.639Z,14.07
2023-03-06T21:56:17.171Z,13.85
2023-03-06T21:58:44.816Z,14.18
2023-03-06T22:01:14.150Z,13.40
2023-03-06T22:03:40.898Z,14.27
2023-03-06T22:06:22.978Z,13.40
2023-03-06T22:08:49.788Z,15.95
2023-03-06T22:11:22.421Z,13.05
2023-03-06T22:13:49.896Z,14.75
2023-03-06T22:16:17.562Z,15.15
2023-03-06T22:18:46.053Z,15.45
2023-03-06T22:21:15.218Z,14.85
2023-03-06T22:23:42.276Z,13.73
2023-03-06T22:26:12.513Z,15.15
2023-03-06T22:28:40.380Z,15.50
2023-03-06T22:31:12.121Z,14.20
2023-03-06T22:33:39.126Z,16.02
2023-03-06T22:36:08.816Z,14.65
2023-03-06T22:38:37.130Z,15.75
2023-03-06T22:41:04.786Z,15.55
2023-03-06T22:43:32.215Z,15.13
2023-03-06T22:46:03.579Z,15.77
2023-03-06T22:48:30.288Z,16.25
2023-03-06T22:51:11.419Z,14.95
2023-03-06T22:53:38.442Z,16.20
2023-03-06T22:56:07.571Z,15.07
2023-03-06T22:58:37.083Z,14.45
2023-03-06T23:01:08.939Z,15.53
2023-03-06T23:03:40.634Z,16.38
2023-03-06T23:06:16.591Z,15.55
2023-03-06T23:08:44.942Z,17.00
2023-03-06T23:11:15.372Z,14.82
2023-03-06T23:14:01.658Z,15.23
2023-03-06T23:16:47.041Z,15.75
2023-03-06T23:19:32.492Z,16.48
2023-03-06T23:22:17.458Z,15.00
2023-03-06T23:25:02.607Z,15.05
2023-03-06T23:27:29.545Z,17.75
2023-03-06T23:29:58.832Z,16.65
2023-03-06T23:32:25.369Z,16.23
2023-03-06T23:34:52.036Z,16.65
2023-03-06T23:37:18.682Z,17.00
2023-03-06T23:39:45.752Z,17.00
2023-03-06T23:42:12.290Z,15.95
2023-03-06T23:44:38.775Z,15.82
2023-03-06T23:47:05.423Z,16.83
2023-03-06T23:49:32.307Z,16.58
2023-03-06T23:51:59.115Z,15.10
2023-03-06T23:54:25.891Z,15.90
2023-03-06T23:56:52.377Z,16.65
2023-03-06T23:59:19.068Z,16.38
